sensor_id;sensor_type;location;lat;lon;timestamp;P1;durP1;ratioP1;P2;durP2;ratioP2
8423;SDS011;4249;49.072;9.770;2022-12-07T00:01:26;10.87;;;8.47;;
8423;SDS011;4249;49.072;9.770;2022-12-07T00:04:15;9.97;;;7.90;;
8423;SDS011;4249;49.072;9.770;2022-12-07T00:07:04;10.83;;;7.27;;
8423;SDS011;4249;49.072;9.770;2022-12-07T00:09:51;10.37;;;7.57;;
8423;SDS011;4249;49.072;9.770;2022-12-07T00:12:38;10.73;;;8.07;;
8423;SDS011;4249;49.072;9.770;2022-12-07T00:15:25;8.53;;;7.43;;
8423;SDS011;4249;49.072;9.770;2022-12-07T00:18:14;9.77;;;8.77;;
8423;SDS011;4249;49.072;9.770;2022-12-07T00:21:01;10.40;;;7.97;;
8423;SDS011;4249;49.072;9.770;2022-12-07T00:23:50;10.20;;;8.27;;
8423;SDS011;4249;49.072;9.770;2022-12-07T00:26:38;9.23;;;7.67;;
8423;SDS011;4249;49.072;9.770;2022-12-07T00:29:27;9.47;;;7.40;;
8423;SDS011;4249;49.072;9.770;2022-12-07T00:32:14;10.10;;;8.10;;
8423;SDS011;4249;49.072;9.770;2022-12-07T00:35:02;12.40;;;8.33;;
8423;SDS011;4249;49.072;9.770;2022-12-07T00:37:50;10.77;;;8.13;;
8423;SDS011;4249;49.072;9.770;2022-12-07T00:40:37;12.53;;;8.90;;
8423;SDS011;4249;49.072;9.770;2022-12-07T00:43:24;12.03;;;8.00;;
8423;SDS011;4249;49.072;9.770;2022-12-07T00:46:12;13.37;;;8.10;;
8423;SDS011;4249;49.072;9.770;2022-12-07T00:49:00;11.10;;;8.57;;
8423;SDS011;4249;49.072;9.770;2022-12-07T00:51:50;12.60;;;9.27;;
8423;SDS011;4249;49.072;9.770;2022-12-07T00:54:37;12.17;;;9.50;;
8423;SDS011;4249;49.072;9.770;2022-12-07T00:57:24;14.30;;;10.20;;
8423;SDS011;4249;49.072;9.770;2022-12-07T01:00:11;10.97;;;8.87;;
8423;SDS011;4249;49.072;9.770;2022-12-07T01:02:59;13.27;;;9.67;;
8423;SDS011;4249;49.072;9.770;2022-12-07T01:05:50;12.13;;;9.07;;
8423;SDS011;4249;49.072;9.770;2022-12-07T01:08:39;10.57;;;8.67;;
8423;SDS011;4249;49.072;9.770;2022-12-07T01:11:27;10.93;;;8.90;;
8423;SDS011;4249;49.072;9.770;2022-12-07T01:14:15;13.43;;;9.57;;
8423;SDS011;4249;49.072;9.770;2022-12-07T01:17:02;14.70;;;9.27;;
8423;SDS011;4249;49.072;9.770;2022-12-07T01:19:50;13.87;;;9.83;;
8423;SDS011;4249;49.072;9.770;2022-12-07T01:22:37;13.47;;;10.33;;
8423;SDS011;4249;49.072;9.770;2022-12-07T01:25:25;13.33;;;8.90;;
8423;SDS011;4249;49.072;9.770;2022-12-07T01:28:13;12.30;;;9.83;;
8423;SDS011;4249;49.072;9.770;2022-12-07T01:31:01;15.30;;;10.30;;
8423;SDS011;4249;49.072;9.770;2022-12-07T01:33:51;14.63;;;10.13;;
8423;SDS011;4249;49.072;9.770;2022-12-07T01:36:39;13.93;;;9.80;;
8423;SDS011;4249;49.072;9.770;2022-12-07T01:39:26;15.23;;;11.17;;
8423;SDS011;4249;49.072;9.770;2022-12-07T01:42:15;16.57;;;11.13;;
8423;SDS011;4249;49.072;9.770;2022-12-07T01:45:31;16.83;;;10.70;;
8423;SDS011;4249;49.072;9.770;2022-12-07T01:48:26;19.37;;;11.93;;
8423;SDS011;4249;49.072;9.770;2022-12-07T01:51:16;23.37;;;12.97;;
8423;SDS011;4249;49.072;9.770;2022-12-07T01:54:04;20.03;;;11.53;;
8423;SDS011;4249;49.072;9.770;2022-12-07T01:56:51;16.77;;;11.90;;
8423;SDS011;4249;49.072;9.770;2022-12-07T01:59:44;18.90;;;12.37;;
8423;SDS011;4249;49.072;9.770;2022-12-07T02:02:34;21.67;;;12.53;;
8423;SDS011;4249;49.072;9.770;2022-12-07T02:05:24;20.63;;;11.13;;
8423;SDS011;4249;49.072;9.770;2022-12-07T02:08:12;16.70;;;10.73;;
8423;SDS011;4249;49.072;9.770;2022-12-07T02:11:00;14.07;;;10.23;;
8423;SDS011;4249;49.072;9.770;2022-12-07T02:13:48;15.20;;;10.73;;
8423;SDS011;4249;49.072;9.770;2022-12-07T02:16:41;17.13;;;12.03;;
8423;SDS011;4249;49.072;9.770;2022-12-07T02:19:54;17.73;;;11.60;;
8423;SDS011;4249;49.072;9.770;2022-12-07T02:26:51;13.83;;;10.17;;
8423;SDS011;4249;49.072;9.770;2022-12-07T02:29:55;14.60;;;10.30;;
8423;SDS011;4249;49.072;9.770;2022-12-07T02:32:48;15.07;;;10.87;;
8423;SDS011;4249;49.072;9.770;2022-12-07T02:35:43;15.90;;;10.63;;
8423;SDS011;4249;49.072;9.770;2022-12-07T02:38:35;18.27;;;11.17;;
8423;SDS011;4249;49.072;9.770;2022-12-07T02:41:27;17.00;;;11.27;;
8423;SDS011;4249;49.072;9.770;2022-12-07T02:44:18;12.97;;;10.17;;
8423;SDS011;4249;49.072;9.770;2022-12-07T02:47:10;16.33;;;11.83;;
8423;SDS011;4249;49.072;9.770;2022-12-07T02:50:02;16.43;;;10.20;;
8423;SDS011;4249;49.072;9.770;2022-12-07T02:52:51;15.07;;;10.53;;
8423;SDS011;4249;49.072;9.770;2022-12-07T02:55:38;16.33;;;11.03;;
8423;SDS011;4249;49.072;9.770;2022-12-07T02:58:31;14.83;;;10.63;;
8423;SDS011;4249;49.072;9.770;2022-12-07T03:01:27;20.13;;;11.47;;
8423;SDS011;4249;49.072;9.770;2022-12-07T03:04:26;15.57;;;10.23;;
8423;SDS011;4249;49.072;9.770;2022-12-07T03:07:24;17.33;;;11.53;;
8423;SDS011;4249;49.072;9.770;2022-12-07T03:10:22;16.53;;;11.13;;
8423;SDS011;4249;49.072;9.770;2022-12-07T03:13:16;15.30;;;10.70;;
8423;SDS011;4249;49.072;9.770;2022-12-07T03:16:11;16.83;;;11.63;;
8423;SDS011;4249;49.072;9.770;2022-12-07T03:19:03;17.67;;;11.57;;
8423;SDS011;4249;49.072;9.770;2022-12-07T03:21:56;17.07;;;10.67;;
8423;SDS011;4249;49.072;9.770;2022-12-07T03:24:47;17.43;;;11.87;;
8423;SDS011;4249;49.072;9.770;2022-12-07T03:27:39;18.10;;;10.03;;
8423;SDS011;4249;49.072;9.770;2022-12-07T03:30:31;16.90;;;10.10;;
8423;SDS011;4249;49.072;9.770;2022-12-07T03:33:24;15.67;;;10.10;;
8423;SDS011;4249;49.072;9.770;2022-12-07T03:36:17;13.87;;;8.87;;
8423;SDS011;4249;49.072;9.770;2022-12-07T03:39:13;16.10;;;10.43;;
8423;SDS011;4249;49.072;9.770;2022-12-07T03:42:09;17.23;;;11.40;;
8423;SDS011;4249;49.072;9.770;2022-12-07T03:44:57;19.53;;;12.17;;
8423;SDS011;4249;49.072;9.770;2022-12-07T03:47:45;17.97;;;11.73;;
8423;SDS011;4249;49.072;9.770;2022-12-07T03:50:38;16.23;;;10.80;;
8423;SDS011;4249;49.072;9.770;2022-12-07T03:53:30;16.07;;;11.23;;
8423;SDS011;4249;49.072;9.770;2022-12-07T03:56:23;18.83;;;12.07;;
8423;SDS011;4249;49.072;9.770;2022-12-07T03:59:11;18.03;;;11.17;;
8423;SDS011;4249;49.072;9.770;2022-12-07T04:02:01;19.80;;;12.13;;
8423;SDS011;4249;49.072;9.770;2022-12-07T04:04:50;18.63;;;11.63;;
8423;SDS011;4249;49.072;9.770;2022-12-07T04:07:37;20.67;;;12.63;;
8423;SDS011;4249;49.072;9.770;2022-12-07T04:10:24;17.10;;;11.93;;
8423;SDS011;4249;49.072;9.770;2022-12-07T04:13:13;18.80;;;11.43;;
8423;SDS011;4249;49.072;9.770;2022-12-07T04:16:00;19.93;;;12.50;;
8423;SDS011;4249;49.072;9.770;2022-12-07T04:18:47;16.37;;;11.37;;
8423;SDS011;4249;49.072;9.770;2022-12-07T04:21:35;16.73;;;10.87;;
8423;SDS011;4249;49.072;9.770;2022-12-07T04:24:22;16.63;;;11.27;;
8423;SDS011;4249;49.072;9.770;2022-12-07T04:27:09;20.17;;;12.07;;
8423;SDS011;4249;49.072;9.770;2022-12-07T04:29:58;20.60;;;12.93;;
8423;SDS011;4249;49.072;9.770;2022-12-07T04:32:45;20.27;;;12.77;;
8423;SDS011;4249;49.072;9.770;2022-12-07T04:35:32;29.00;;;16.47;;
8423;SDS011;4249;49.072;9.770;2022-12-07T04:38:19;37.77;;;19.93;;
8423;SDS011;4249;49.072;9.770;2022-12-07T04:41:07;24.77;;;15.03;;
8423;SDS011;4249;49.072;9.770;2022-12-07T04:43:55;21.17;;;13.23;;
8423;SDS011;4249;49.072;9.770;2022-12-07T04:46:45;21.43;;;12.13;;
8423;SDS011;4249;49.072;9.770;2022-12-07T04:49:33;19.23;;;12.03;;
8423;SDS011;4249;49.072;9.770;2022-12-07T04:52:20;19.53;;;11.97;;
8423;SDS011;4249;49.072;9.770;2022-12-07T04:55:07;21.83;;;13.13;;
8423;SDS011;4249;49.072;9.770;2022-12-07T04:57:55;21.50;;;13.77;;
8423;SDS011;4249;49.072;9.770;2022-12-07T05:00:42;22.20;;;13.50;;
8423;SDS011;4249;49.072;9.770;2022-12-07T05:03:30;20.93;;;12.40;;
8423;SDS011;4249;49.072;9.770;2022-12-07T05:06:18;20.70;;;12.77;;
8423;SDS011;4249;49.072;9.770;2022-12-07T05:09:05;23.63;;;13.37;;
8423;SDS011;4249;49.072;9.770;2022-12-07T05:11:52;22.17;;;13.30;;
8423;SDS011;4249;49.072;9.770;2022-12-07T05:14:39;20.83;;;12.40;;
8423;SDS011;4249;49.072;9.770;2022-12-07T05:17:28;19.97;;;12.57;;
8423;SDS011;4249;49.072;9.770;2022-12-07T05:20:16;17.80;;;12.00;;
8423;SDS011;4249;49.072;9.770;2022-12-07T05:23:04;21.57;;;14.00;;
8423;SDS011;4249;49.072;9.770;2022-12-07T05:25:51;20.83;;;12.90;;
8423;SDS011;4249;49.072;9.770;2022-12-07T05:28:38;19.03;;;12.47;;
8423;SDS011;4249;49.072;9.770;2022-12-07T05:31:26;17.97;;;12.07;;
8423;SDS011;4249;49.072;9.770;2022-12-07T05:34:13;19.17;;;12.27;;
8423;SDS011;4249;49.072;9.770;2022-12-07T05:37:02;18.60;;;13.10;;
8423;SDS011;4249;49.072;9.770;2022-12-07T05:39:50;20.17;;;12.80;;
8423;SDS011;4249;49.072;9.770;2022-12-07T05:42:37;19.73;;;12.07;;
8423;SDS011;4249;49.072;9.770;2022-12-07T05:45:24;19.03;;;12.00;;
8423;SDS011;4249;49.072;9.770;2022-12-07T05:48:11;18.37;;;11.97;;
8423;SDS011;4249;49.072;9.770;2022-12-07T05:50:58;18.70;;;12.27;;
8423;SDS011;4249;49.072;9.770;2022-12-07T05:53:47;22.80;;;13.03;;
8423;SDS011;4249;49.072;9.770;2022-12-07T05:56:34;21.93;;;13.13;;
8423;SDS011;4249;49.072;9.770;2022-12-07T05:59:21;21.27;;;12.67;;
8423;SDS011;4249;49.072;9.770;2022-12-07T06:02:13;20.03;;;12.57;;
8423;SDS011;4249;49.072;9.770;2022-12-07T06:05:02;21.00;;;13.57;;
8423;SDS011;4249;49.072;9.770;2022-12-07T06:07:49;18.73;;;11.67;;
8423;SDS011;4249;49.072;9.770;2022-12-07T06:10:37;20.43;;;12.97;;
8423;SDS011;4249;49.072;9.770;2022-12-07T06:13:25;20.40;;;12.73;;
8423;SDS011;4249;49.072;9.770;2022-12-07T06:16:11;19.83;;;13.30;;
8423;SDS011;4249;49.072;9.770;2022-12-07T06:18:58;18.37;;;11.97;;
8423;SDS011;4249;49.072;9.770;2022-12-07T06:21:45;23.73;;;13.50;;
8423;SDS011;4249;49.072;9.770;2022-12-07T06:24:33;18.27;;;12.73;;
8423;SDS011;4249;49.072;9.770;2022-12-07T06:27:21;18.10;;;11.63;;
8423;SDS011;4249;49.072;9.770;2022-12-07T06:30:09;18.37;;;12.40;;
8423;SDS011;4249;49.072;9.770;2022-12-07T06:32:56;18.13;;;11.77;;
8423;SDS011;4249;49.072;9.770;2022-12-07T06:35:43;22.07;;;13.13;;
8423;SDS011;4249;49.072;9.770;2022-12-07T06:38:30;26.70;;;17.07;;
8423;SDS011;4249;49.072;9.770;2022-12-07T06:41:18;22.37;;;15.03;;
8423;SDS011;4249;49.072;9.770;2022-12-07T06:43:46;21.03;;;14.57;;
8423;SDS011;4249;49.072;9.770;2022-12-07T06:46:15;18.93;;;14.00;;
8423;SDS011;4249;49.072;9.770;2022-12-07T06:48:42;20.97;;;14.47;;
8423;SDS011;4249;49.072;9.770;2022-12-07T06:51:10;19.33;;;12.93;;
8423;SDS011;4249;49.072;9.770;2022-12-07T06:53:37;16.77;;;11.50;;
8423;SDS011;4249;49.072;9.770;2022-12-07T06:56:04;17.07;;;11.90;;
8423;SDS011;4249;49.072;9.770;2022-12-07T06:58:32;16.03;;;11.20;;
8423;SDS011;4249;49.072;9.770;2022-12-07T07:01:00;19.00;;;11.80;;
8423;SDS011;4249;49.072;9.770;2022-12-07T07:03:28;17.93;;;11.13;;
8423;SDS011;4249;49.072;9.770;2022-12-07T07:05:54;15.77;;;11.00;;
8423;SDS011;4249;49.072;9.770;2022-12-07T07:08:21;15.43;;;10.33;;
8423;SDS011;4249;49.072;9.770;2022-12-07T07:10:49;14.13;;;9.17;;
8423;SDS011;4249;49.072;9.770;2022-12-07T07:13:16;14.83;;;9.30;;
8423;SDS011;4249;49.072;9.770;2022-12-07T07:15:42;16.43;;;11.60;;
8423;SDS011;4249;49.072;9.770;2022-12-07T07:18:11;16.40;;;11.73;;
8423;SDS011;4249;49.072;9.770;2022-12-07T07:20:38;16.23;;;11.37;;
8423;SDS011;4249;49.072;9.770;2022-12-07T07:23:05;14.47;;;10.30;;
8423;SDS011;4249;49.072;9.770;2022-12-07T07:25:32;14.00;;;10.13;;
8423;SDS011;4249;49.072;9.770;2022-12-07T07:28:00;15.40;;;10.80;;
8423;SDS011;4249;49.072;9.770;2022-12-07T07:30:27;20.93;;;12.60;;
8423;SDS011;4249;49.072;9.770;2022-12-07T07:32:55;20.87;;;14.37;;
8423;SDS011;4249;49.072;9.770;2022-12-07T07:35:24;18.73;;;12.37;;
8423;SDS011;4249;49.072;9.770;2022-12-07T07:37:52;14.07;;;10.10;;
8423;SDS011;4249;49.072;9.770;2022-12-07T07:40:18;13.90;;;9.33;;
8423;SDS011;4249;49.072;9.770;2022-12-07T07:42:46;13.03;;;9.53;;
8423;SDS011;4249;49.072;9.770;2022-12-07T07:45:14;17.37;;;12.17;;
8423;SDS011;4249;49.072;9.770;2022-12-07T07:47:41;13.47;;;9.43;;
8423;SDS011;4249;49.072;9.770;2022-12-07T07:50:09;13.07;;;10.17;;
8423;SDS011;4249;49.072;9.770;2022-12-07T07:52:37;14.50;;;10.17;;
8423;SDS011;4249;49.072;9.770;2022-12-07T07:55:04;14.33;;;10.83;;
8423;SDS011;4249;49.072;9.770;2022-12-07T07:57:34;14.40;;;10.83;;
8423;SDS011;4249;49.072;9.770;2022-12-07T08:00:02;15.70;;;11.07;;
8423;SDS011;4249;49.072;9.770;2022-12-07T08:02:30;15.50;;;10.33;;
8423;SDS011;4249;49.072;9.770;2022-12-07T08:04:57;14.70;;;10.87;;
8423;SDS011;4249;49.072;9.770;2022-12-07T08:07:24;14.77;;;10.33;;
8423;SDS011;4249;49.072;9.770;2022-12-07T08:09:53;17.03;;;11.50;;
8423;SDS011;4249;49.072;9.770;2022-12-07T08:12:19;16.27;;;11.40;;
8423;SDS011;4249;49.072;9.770;2022-12-07T08:14:46;16.53;;;11.70;;
8423;SDS011;4249;49.072;9.770;2022-12-07T08:17:13;13.97;;;10.83;;
8423;SDS011;4249;49.072;9.770;2022-12-07T08:19:40;15.40;;;10.63;;
8423;SDS011;4249;49.072;9.770;2022-12-07T08:22:07;16.33;;;12.50;;
8423;SDS011;4249;49.072;9.770;2022-12-07T08:24:34;15.03;;;10.50;;
8423;SDS011;4249;49.072;9.770;2022-12-07T08:27:02;12.40;;;9.63;;
8423;SDS011;4249;49.072;9.770;2022-12-07T08:29:29;14.57;;;10.50;;
8423;SDS011;4249;49.072;9.770;2022-12-07T08:31:57;19.77;;;13.23;;
8423;SDS011;4249;49.072;9.770;2022-12-07T08:34:26;12.70;;;8.73;;
8423;SDS011;4249;49.072;9.770;2022-12-07T08:36:53;12.70;;;9.03;;
8423;SDS011;4249;49.072;9.770;2022-12-07T08:39:20;12.20;;;8.00;;
8423;SDS011;4249;49.072;9.770;2022-12-07T08:41:47;10.57;;;8.27;;
8423;SDS011;4249;49.072;9.770;2022-12-07T08:44:15;10.20;;;8.00;;
8423;SDS011;4249;49.072;9.770;2022-12-07T08:46:42;13.50;;;9.43;;
8423;SDS011;4249;49.072;9.770;2022-12-07T08:49:13;11.33;;;8.43;;
8423;SDS011;4249;49.072;9.770;2022-12-07T08:51:42;11.33;;;8.47;;
8423;SDS011;4249;49.072;9.770;2022-12-07T08:54:10;14.07;;;9.20;;
8423;SDS011;4249;49.072;9.770;2022-12-07T08:56:40;9.90;;;7.87;;
8423;SDS011;4249;49.072;9.770;2022-12-07T08:59:07;10.73;;;7.93;;
8423;SDS011;4249;49.072;9.770;2022-12-07T09:01:36;12.53;;;9.30;;
8423;SDS011;4249;49.072;9.770;2022-12-07T09:04:03;12.27;;;9.13;;
8423;SDS011;4249;49.072;9.770;2022-12-07T09:06:30;9.63;;;7.20;;
8423;SDS011;4249;49.072;9.770;2022-12-07T09:08:58;10.63;;;7.63;;
8423;SDS011;4249;49.072;9.770;2022-12-07T09:11:27;14.37;;;9.63;;
8423;SDS011;4249;49.072;9.770;2022-12-07T09:13:54;15.10;;;10.57;;
8423;SDS011;4249;49.072;9.770;2022-12-07T09:16:21;14.40;;;9.67;;
8423;SDS011;4249;49.072;9.770;2022-12-07T09:18:50;14.20;;;9.10;;
8423;SDS011;4249;49.072;9.770;2022-12-07T09:21:17;13.17;;;9.40;;
8423;SDS011;4249;49.072;9.770;2022-12-07T09:23:43;13.17;;;9.23;;
8423;SDS011;4249;49.072;9.770;2022-12-07T09:26:10;12.30;;;8.40;;
8423;SDS011;4249;49.072;9.770;2022-12-07T09:28:37;14.00;;;9.00;;
8423;SDS011;4249;49.072;9.770;2022-12-07T09:31:05;11.27;;;8.67;;
8423;SDS011;4249;49.072;9.770;2022-12-07T09:33:33;13.50;;;9.20;;
8423;SDS011;4249;49.072;9.770;2022-12-07T09:36:02;12.90;;;9.20;;
8423;SDS011;4249;49.072;9.770;2022-12-07T09:38:30;12.67;;;9.40;;
8423;SDS011;4249;49.072;9.770;2022-12-07T09:40:57;11.20;;;8.50;;
8423;SDS011;4249;49.072;9.770;2022-12-07T09:43:33;11.53;;;8.30;;
8423;SDS011;4249;49.072;9.770;2022-12-07T09:46:02;10.90;;;8.13;;
8423;SDS011;4249;49.072;9.770;2022-12-07T09:48:31;12.83;;;9.43;;
8423;SDS011;4249;49.072;9.770;2022-12-07T09:51:03;11.33;;;8.37;;
8423;SDS011;4249;49.072;9.770;2022-12-07T09:53:40;12.47;;;8.20;;
8423;SDS011;4249;49.072;9.770;2022-12-07T09:56:08;12.03;;;8.53;;
8423;SDS011;4249;49.072;9.770;2022-12-07T09:58:37;12.10;;;10.27;;
8423;SDS011;4249;49.072;9.770;2022-12-07T10:01:08;11.00;;;7.63;;
8423;SDS011;4249;49.072;9.770;2022-12-07T10:03:39;11.67;;;8.17;;
8423;SDS011;4249;49.072;9.770;2022-12-07T10:06:10;11.93;;;8.10;;
8423;SDS011;4249;49.072;9.770;2022-12-07T10:08:39;10.77;;;7.60;;
8423;SDS011;4249;49.072;9.770;2022-12-07T10:11:08;12.93;;;7.63;;
8423;SDS011;4249;49.072;9.770;2022-12-07T10:13:36;10.50;;;7.57;;
8423;SDS011;4249;49.072;9.770;2022-12-07T10:16:05;11.20;;;7.57;;
8423;SDS011;4249;49.072;9.770;2022-12-07T10:18:33;10.97;;;7.23;;
8423;SDS011;4249;49.072;9.770;2022-12-07T10:23:58;11.37;;;7.60;;
8423;SDS011;4249;49.072;9.770;2022-12-07T10:26:29;11.10;;;7.30;;
8423;SDS011;4249;49.072;9.770;2022-12-07T10:28:58;10.40;;;7.37;;
8423;SDS011;4249;49.072;9.770;2022-12-07T10:31:28;12.03;;;7.77;;
8423;SDS011;4249;49.072;9.770;2022-12-07T10:33:57;11.37;;;7.80;;
8423;SDS011;4249;49.072;9.770;2022-12-07T10:36:26;10.47;;;7.33;;
8423;SDS011;4249;49.072;9.770;2022-12-07T10:39:01;12.30;;;7.67;;
8423;SDS011;4249;49.072;9.770;2022-12-07T10:41:30;11.20;;;7.47;;
8423;SDS011;4249;49.072;9.770;2022-12-07T10:43:57;11.37;;;7.60;;
8423;SDS011;4249;49.072;9.770;2022-12-07T10:46:40;11.13;;;8.13;;
8423;SDS011;4249;49.072;9.770;2022-12-07T10:49:30;10.77;;;8.00;;
8423;SDS011;4249;49.072;9.770;2022-12-07T10:52:16;12.33;;;8.13;;
8423;SDS011;4249;49.072;9.770;2022-12-07T10:54:52;15.07;;;8.63;;
8423;SDS011;4249;49.072;9.770;2022-12-07T10:57:37;12.90;;;8.00;;
8423;SDS011;4249;49.072;9.770;2022-12-07T11:00:15;10.73;;;7.57;;
8423;SDS011;4249;49.072;9.770;2022-12-07T11:02:52;11.17;;;7.20;;
8423;SDS011;4249;49.072;9.770;2022-12-07T11:05:38;12.07;;;7.33;;
8423;SDS011;4249;49.072;9.770;2022-12-07T11:08:14;12.17;;;7.80;;
8423;SDS011;4249;49.072;9.770;2022-12-07T11:10:48;11.20;;;7.43;;
8423;SDS011;4249;49.072;9.770;2022-12-07T11:13:25;11.87;;;6.60;;
8423;SDS011;4249;49.072;9.770;2022-12-07T11:16:01;9.50;;;6.73;;
8423;SDS011;4249;49.072;9.770;2022-12-07T11:18:36;10.43;;;6.90;;
8423;SDS011;4249;49.072;9.770;2022-12-07T11:21:15;10.13;;;6.87;;
8423;SDS011;4249;49.072;9.770;2022-12-07T11:23:52;8.33;;;6.83;;
8423;SDS011;4249;49.072;9.770;2022-12-07T11:26:31;11.73;;;8.13;;
8423;SDS011;4249;49.072;9.770;2022-12-07T11:29:13;10.80;;;7.50;;
8423;SDS011;4249;49.072;9.770;2022-12-07T11:31:54;11.57;;;7.77;;
8423;SDS011;4249;49.072;9.770;2022-12-07T11:34:34;10.30;;;7.23;;
8423;SDS011;4249;49.072;9.770;2022-12-07T11:37:08;9.67;;;7.00;;
8423;SDS011;4249;49.072;9.770;2022-12-07T11:39:43;12.47;;;8.30;;
8423;SDS011;4249;49.072;9.770;2022-12-07T11:42:16;11.57;;;7.77;;
8423;SDS011;4249;49.072;9.770;2022-12-07T11:44:48;11.57;;;8.17;;
8423;SDS011;4249;49.072;9.770;2022-12-07T11:47:20;10.83;;;7.67;;
8423;SDS011;4249;49.072;9.770;2022-12-07T11:49:56;11.67;;;7.80;;
8423;SDS011;4249;49.072;9.770;2022-12-07T11:52:32;10.57;;;7.67;;
8423;SDS011;4249;49.072;9.770;2022-12-07T11:55:14;10.90;;;8.50;;
8423;SDS011;4249;49.072;9.770;2022-12-07T11:57:46;10.73;;;7.93;;
8423;SDS011;4249;49.072;9.770;2022-12-07T12:00:17;15.67;;;8.53;;
8423;SDS011;4249;49.072;9.770;2022-12-07T12:02:46;9.63;;;7.13;;
8423;SDS011;4249;49.072;9.770;2022-12-07T12:05:19;9.17;;;7.03;;
8423;SDS011;4249;49.072;9.770;2022-12-07T12:07:51;13.33;;;8.83;;
8423;SDS011;4249;49.072;9.770;2022-12-07T12:10:30;12.97;;;9.13;;
8423;SDS011;4249;49.072;9.770;2022-12-07T12:13:11;11.97;;;7.97;;
8423;SDS011;4249;49.072;9.770;2022-12-07T12:15:59;12.63;;;8.40;;
8423;SDS011;4249;49.072;9.770;2022-12-07T12:18:42;14.30;;;8.40;;
8423;SDS011;4249;49.072;9.770;2022-12-07T12:21:18;10.03;;;7.40;;
8423;SDS011;4249;49.072;9.770;2022-12-07T12:23:50;12.93;;;7.87;;
8423;SDS011;4249;49.072;9.770;2022-12-07T12:26:24;10.50;;;8.10;;
8423;SDS011;4249;49.072;9.770;2022-12-07T12:28:54;11.27;;;7.73;;
8423;SDS011;4249;49.072;9.770;2022-12-07T12:31:31;10.90;;;7.93;;
8423;SDS011;4249;49.072;9.770;2022-12-07T12:34:02;10.60;;;7.93;;
8423;SDS011;4249;49.072;9.770;2022-12-07T12:36:44;13.10;;;7.27;;
8423;SDS011;4249;49.072;9.770;2022-12-07T12:39:12;11.07;;;8.13;;
8423;SDS011;4249;49.072;9.770;2022-12-07T12:47:55;13.13;;;8.33;;
8423;SDS011;4249;49.072;9.770;2022-12-07T12:50:27;11.23;;;8.20;;
8423;SDS011;4249;49.072;9.770;2022-12-07T12:53:03;14.13;;;9.70;;
8423;SDS011;4249;49.072;9.770;2022-12-07T12:58:48;11.30;;;8.00;;
8423;SDS011;4249;49.072;9.770;2022-12-07T13:10:20;12.57;;;7.87;;
8423;SDS011;4249;49.072;9.770;2022-12-07T13:12:57;9.83;;;6.87;;
8423;SDS011;4249;49.072;9.770;2022-12-07T13:15:34;8.50;;;6.57;;
8423;SDS011;4249;49.072;9.770;2022-12-07T13:20:52;8.87;;;6.57;;
8423;SDS011;4249;49.072;9.770;2022-12-07T13:23:24;8.40;;;6.60;;
8423;SDS011;4249;49.072;9.770;2022-12-07T13:25:54;9.47;;;7.90;;
8423;SDS011;4249;49.072;9.770;2022-12-07T13:28:42;11.23;;;7.63;;
8423;SDS011;4249;49.072;9.770;2022-12-07T13:34:01;11.73;;;7.63;;
8423;SDS011;4249;49.072;9.770;2022-12-07T13:36:31;8.77;;;6.63;;
8423;SDS011;4249;49.072;9.770;2022-12-07T13:39:10;9.73;;;6.60;;
8423;SDS011;4249;49.072;9.770;2022-12-07T13:41:44;9.83;;;7.00;;
8423;SDS011;4249;49.072;9.770;2022-12-07T13:44:19;9.23;;;6.87;;
8423;SDS011;4249;49.072;9.770;2022-12-07T13:46:50;9.27;;;6.83;;
8423;SDS011;4249;49.072;9.770;2022-12-07T13:49:24;11.20;;;7.13;;
8423;SDS011;4249;49.072;9.770;2022-12-07T13:51:53;10.47;;;7.67;;
8423;SDS011;4249;49.072;9.770;2022-12-07T13:54:21;8.93;;;6.70;;
8423;SDS011;4249;49.072;9.770;2022-12-07T13:56:49;8.90;;;6.23;;
8423;SDS011;4249;49.072;9.770;2022-12-07T13:59:18;11.30;;;7.17;;
8423;SDS011;4249;49.072;9.770;2022-12-07T14:01:50;8.80;;;6.83;;
8423;SDS011;4249;49.072;9.770;2022-12-07T14:07:00;12.57;;;8.13;;
8423;SDS011;4249;49.072;9.770;2022-12-07T14:09:52;10.03;;;7.73;;
8423;SDS011;4249;49.072;9.770;2022-12-07T14:12:20;11.13;;;7.70;;
8423;SDS011;4249;49.072;9.770;2022-12-07T14:14:47;10.63;;;7.87;;
8423;SDS011;4249;49.072;9.770;2022-12-07T14:17:17;11.33;;;8.13;;
8423;SDS011;4249;49.072;9.770;2022-12-07T14:19:48;12.87;;;8.20;;
8423;SDS011;4249;49.072;9.770;2022-12-07T14:22:22;11.17;;;9.50;;
8423;SDS011;4249;49.072;9.770;2022-12-07T14:24:57;11.73;;;8.00;;
8423;SDS011;4249;49.072;9.770;2022-12-07T14:27:38;9.73;;;7.47;;
8423;SDS011;4249;49.072;9.770;2022-12-07T14:30:14;10.40;;;7.83;;
8423;SDS011;4249;49.072;9.770;2022-12-07T14:32:44;13.37;;;8.57;;
8423;SDS011;4249;49.072;9.770;2022-12-07T14:35:14;12.47;;;7.97;;
8423;SDS011;4249;49.072;9.770;2022-12-07T14:37:43;11.37;;;7.30;;
8423;SDS011;4249;49.072;9.770;2022-12-07T14:40:12;11.43;;;7.87;;
8423;SDS011;4249;49.072;9.770;2022-12-07T14:42:40;10.83;;;8.37;;
8423;SDS011;4249;49.072;9.770;2022-12-07T14:45:13;13.57;;;7.73;;
8423;SDS011;4249;49.072;9.770;2022-12-07T14:47:44;9.43;;;6.97;;
8423;SDS011;4249;49.072;9.770;2022-12-07T14:50:12;11.37;;;8.10;;
8423;SDS011;4249;49.072;9.770;2022-12-07T14:52:40;11.27;;;7.57;;
8423;SDS011;4249;49.072;9.770;2022-12-07T14:55:14;12.20;;;8.17;;
8423;SDS011;4249;49.072;9.770;2022-12-07T14:57:46;12.50;;;7.97;;
8423;SDS011;4249;49.072;9.770;2022-12-07T15:00:14;11.00;;;7.80;;
8423;SDS011;4249;49.072;9.770;2022-12-07T15:02:42;11.07;;;7.30;;
8423;SDS011;4249;49.072;9.770;2022-12-07T15:05:12;9.53;;;7.63;;
8423;SDS011;4249;49.072;9.770;2022-12-07T15:07:39;10.90;;;6.83;;
8423;SDS011;4249;49.072;9.770;2022-12-07T15:10:09;14.90;;;8.57;;
8423;SDS011;4249;49.072;9.770;2022-12-07T15:12:41;15.70;;;8.97;;
8423;SDS011;4249;49.072;9.770;2022-12-07T15:15:08;16.83;;;10.40;;
8423;SDS011;4249;49.072;9.770;2022-12-07T15:17:37;12.30;;;9.20;;
8423;SDS011;4249;49.072;9.770;2022-12-07T15:20:04;16.23;;;10.43;;
8423;SDS011;4249;49.072;9.770;2022-12-07T15:22:35;15.93;;;10.37;;
8423;SDS011;4249;49.072;9.770;2022-12-07T15:25:01;16.00;;;11.23;;
8423;SDS011;4249;49.072;9.770;2022-12-07T15:27:29;15.33;;;10.20;;
8423;SDS011;4249;49.072;9.770;2022-12-07T15:29:57;13.43;;;9.93;;
8423;SDS011;4249;49.072;9.770;2022-12-07T15:32:23;13.47;;;9.30;;
8423;SDS011;4249;49.072;9.770;2022-12-07T15:34:50;14.10;;;9.60;;
8423;SDS011;4249;49.072;9.770;2022-12-07T15:37:17;13.33;;;9.47;;
8423;SDS011;4249;49.072;9.770;2022-12-07T15:39:46;14.33;;;9.37;;
8423;SDS011;4249;49.072;9.770;2022-12-07T15:42:12;16.53;;;10.60;;
8423;SDS011;4249;49.072;9.770;2022-12-07T15:44:39;13.87;;;10.20;;
8423;SDS011;4249;49.072;9.770;2022-12-07T15:47:23;13.97;;;9.37;;
8423;SDS011;4249;49.072;9.770;2022-12-07T15:49:51;12.53;;;8.90;;
8423;SDS011;4249;49.072;9.770;2022-12-07T15:52:18;15.10;;;10.47;;
8423;SDS011;4249;49.072;9.770;2022-12-07T15:54:46;13.67;;;10.13;;
8423;SDS011;4249;49.072;9.770;2022-12-07T15:57:13;19.40;;;11.77;;
8423;SDS011;4249;49.072;9.770;2022-12-07T15:59:40;17.40;;;10.53;;
8423;SDS011;4249;49.072;9.770;2022-12-07T16:02:07;19.47;;;13.07;;
8423;SDS011;4249;49.072;9.770;2022-12-07T16:04:36;20.83;;;13.77;;
8423;SDS011;4249;49.072;9.770;2022-12-07T16:07:03;16.40;;;12.77;;
8423;SDS011;4249;49.072;9.770;2022-12-07T16:09:31;16.33;;;11.67;;
8423;SDS011;4249;49.072;9.770;2022-12-07T16:12:00;16.17;;;11.10;;
8423;SDS011;4249;49.072;9.770;2022-12-07T16:14:27;15.60;;;10.30;;
8423;SDS011;4249;49.072;9.770;2022-12-07T16:16:54;19.90;;;11.03;;
8423;SDS011;4249;49.072;9.770;2022-12-07T16:19:21;18.17;;;11.43;;
8423;SDS011;4249;49.072;9.770;2022-12-07T16:21:48;18.07;;;12.00;;
8423;SDS011;4249;49.072;9.770;2022-12-07T16:24:15;20.30;;;13.40;;
8423;SDS011;4249;49.072;9.770;2022-12-07T16:26:42;14.27;;;9.90;;
8423;SDS011;4249;49.072;9.770;2022-12-07T16:29:11;16.77;;;11.63;;
8423;SDS011;4249;49.072;9.770;2022-12-07T16:31:41;24.23;;;16.50;;
8423;SDS011;4249;49.072;9.770;2022-12-07T16:34:08;19.17;;;13.50;;